sensor_id;sensor_type;location;lat;lon;timestamp;P1;P2;P0
75946;PMS5003;64628;50.104;14.614;2023-03-08T00:00:25;18;16;
75946;PMS5003;64628;50.104;14.614;2023-03-08T00:02:51;19;13;
75946;PMS5003;64628;50.104;14.614;2023-03-08T00:05:16;19;13;
75946;PMS5003;64628;50.104;14.614;2023-03-08T00:07:41;26;21;
75946;PMS5003;64628;50.104;14.614;2023-03-08T00:10:06;18;16;
75946;PMS5003;64628;50.104;14.614;2023-03-08T00:12:31;19;17;
75946;PMS5003;64628;50.104;14.614;2023-03-08T00:14:56;21;17;
75946;PMS5003;64628;50.104;14.614;2023-03-08T00:17:21;24;19;
75946;PMS5003;64628;50.104;14.614;2023-03-08T00:19:47;23;19;
75946;PMS5003;64628;50.104;14.614;2023-03-08T00:22:12;15;15;
75946;PMS5003;64628;50.104;14.614;2023-03-08T00:24:37;19;16;
75946;PMS5003;64628;50.104;14.614;2023-03-08T00:27:03;19;14;
75946;PMS5003;64628;50.104;14.614;2023-03-08T00:29:27;26;20;
75946;PMS5003;64628;50.104;14.614;2023-03-08T00:31:53;28;25;
75946;PMS5003;64628;50.104;14.614;2023-03-08T00:34:18;24;16;
75946;PMS5003;64628;50.104;14.614;2023-03-08T00:36:43;24;21;
75946;PMS5003;64628;50.104;14.614;2023-03-08T00:39:09;19;13;
75946;PMS5003;64628;50.104;14.614;2023-03-08T00:41:34;20;16;
75946;PMS5003;64628;50.104;14.614;2023-03-08T00:44:00;16;15;
75946;PMS5003;64628;50.104;14.614;2023-03-08T00:46:25;20;17;
75946;PMS5003;64628;50.104;14.614;2023-03-08T00:48:50;24;19;
75946;PMS5003;64628;50.104;14.614;2023-03-08T00:51:17;21;17;
75946;PMS5003;64628;50.104;14.614;2023-03-08T00:53:42;20;17;
75946;PMS5003;64628;50.104;14.614;2023-03-08T00:56:07;15;14;
75946;PMS5003;64628;50.104;14.614;2023-03-08T00:58:32;24;17;
75946;PMS5003;64628;50.104;14.614;2023-03-08T01:00:58;25;16;
75946;PMS5003;64628;50.104;14.614;2023-03-08T01:03:24;19;19;
75946;PMS5003;64628;50.104;14.614;2023-03-08T01:05:50;28;20;
75946;PMS5003;64628;50.104;14.614;2023-03-08T01:08:16;21;16;
75946;PMS5003;64628;50.104;14.614;2023-03-08T01:10:39;34;25;
75946;PMS5003;64628;50.104;14.614;2023-03-08T01:13:05;26;20;
75946;PMS5003;64628;50.104;14.614;2023-03-08T01:15:33;30;26;
75946;PMS5003;64628;50.104;14.614;2023-03-08T01:17:56;29;26;
75946;PMS5003;64628;50.104;14.614;2023-03-08T01:20:21;25;17;
75946;PMS5003;64628;50.104;14.614;2023-03-08T01:22:46;22;20;
75946;PMS5003;64628;50.104;14.614;2023-03-08T01:25:12;21;17;
75946;PMS5003;64628;50.104;14.614;2023-03-08T01:27:38;21;19;
75946;PMS5003;64628;50.104;14.614;2023-03-08T01:30:04;27;26;
75946;PMS5003;64628;50.104;14.614;2023-03-08T01:32:29;29;24;
75946;PMS5003;64628;50.104;14.614;2023-03-08T01:34:54;20;19;
75946;PMS5003;64628;50.104;14.614;2023-03-08T01:37:20;19;17;
75946;PMS5003;64628;50.104;14.614;2023-03-08T01:39:45;30;24;
75946;PMS5003;64628;50.104;14.614;2023-03-08T01:42:10;13;13;
75946;PMS5003;64628;50.104;14.614;2023-03-08T01:47:02;32;27;
75946;PMS5003;64628;50.104;14.614;2023-03-08T01:49:27;25;20;
75946;PMS5003;64628;50.104;14.614;2023-03-08T01:51:54;22;17;
75946;PMS5003;64628;50.104;14.614;2023-03-08T01:54:19;26;20;
75946;PMS5003;64628;50.104;14.614;2023-03-08T01:56:44;25;24;
75946;PMS5003;64628;50.104;14.614;2023-03-08T01:59:08;25;19;
75946;PMS5003;64628;50.104;14.614;2023-03-08T02:01:34;27;25;
75946;PMS5003;64628;50.104;14.614;2023-03-08T02:04:00;20;17;
75946;PMS5003;64628;50.104;14.614;2023-03-08T02:06:26;25;20;
75946;PMS5003;64628;50.104;14.614;2023-03-08T02:08:52;27;25;
75946;PMS5003;64628;50.104;14.614;2023-03-08T02:11:17;26;21;
75946;PMS5003;64628;50.104;14.614;2023-03-08T02:13:42;28;27;
75946;PMS5003;64628;50.104;14.614;2023-03-08T02:16:09;34;27;
75946;PMS5003;64628;50.104;14.614;2023-03-08T02:18:33;32;25;
75946;PMS5003;64628;50.104;14.614;2023-03-08T02:20:59;26;25;
75946;PMS5003;64628;50.104;14.614;2023-03-08T02:23:24;33;23;
75946;PMS5003;64628;50.104;14.614;2023-03-08T02:25:50;21;16;
75946;PMS5003;64628;50.104;14.614;2023-03-08T02:28:15;28;21;
75946;PMS5003;64628;50.104;14.614;2023-03-08T02:30:40;31;26;
75946;PMS5003;64628;50.104;14.614;2023-03-08T02:33:05;22;21;
75946;PMS5003;64628;50.104;14.614;2023-03-08T02:35:30;32;25;
75946;PMS5003;64628;50.104;14.614;2023-03-08T02:37:56;26;23;
75946;PMS5003;64628;50.104;14.614;2023-03-08T02:40:21;30;27;
75946;PMS5003;64628;50.104;14.614;2023-03-08T02:42:46;27;21;
75946;PMS5003;64628;50.104;14.614;2023-03-08T02:45:12;27;22;
75946;PMS5003;64628;50.104;14.614;2023-03-08T02:47:37;28;18;
75946;PMS5003;64628;50.104;14.614;2023-03-08T02:50:08;30;27;
75946;PMS5003;64628;50.104;14.614;2023-03-08T02:52:28;23;21;
75946;PMS5003;64628;50.104;14.614;2023-03-08T02:54:53;30;28;
75946;PMS5003;64628;50.104;14.614;2023-03-08T02:57:19;27;21;
75946;PMS5003;64628;50.104;14.614;2023-03-08T02:59:44;31;22;
75946;PMS5003;64628;50.104;14.614;2023-03-08T03:02:10;29;22;
75946;PMS5003;64628;50.104;14.614;2023-03-08T03:04:35;18;18;
75946;PMS5003;64628;50.104;14.614;2023-03-08T03:07:01;24;21;
75946;PMS5003;64628;50.104;14.614;2023-03-08T03:09:26;22;17;
75946;PMS5003;64628;50.104;14.614;2023-03-08T03:11:52;23;22;
75946;PMS5003;64628;50.104;14.614;2023-03-08T03:14:17;30;20;
75946;PMS5003;64628;50.104;14.614;2023-03-08T03:16:43;35;26;
75946;PMS5003;64628;50.104;14.614;2023-03-08T03:19:08;23;21;
75946;PMS5003;64628;50.104;14.614;2023-03-08T03:21:33;26;21;
75946;PMS5003;64628;50.104;14.614;2023-03-08T03:23:59;36;30;
75946;PMS5003;64628;50.104;14.614;2023-03-08T03:26:24;21;18;
75946;PMS5003;64628;50.104;14.614;2023-03-08T03:28:49;16;15;
75946;PMS5003;64628;50.104;14.614;2023-03-08T03:31:16;22;16;
75946;PMS5003;64628;50.104;14.614;2023-03-08T03:33:40;20;18;
75946;PMS5003;64628;50.104;14.614;2023-03-08T03:36:06;20;16;
75946;PMS5003;64628;50.104;14.614;2023-03-08T03:38:31;17;12;
75946;PMS5003;64628;50.104;14.614;2023-03-08T03:40:59;32;31;
75946;PMS5003;64628;50.104;14.614;2023-03-08T03:43:21;36;32;
75946;PMS5003;64628;50.104;14.614;2023-03-08T03:48:12;30;27;
75946;PMS5003;64628;50.104;14.614;2023-03-08T03:50:38;17;16;
75946;PMS5003;64628;50.104;14.614;2023-03-08T03:53:08;21;20;
75946;PMS5003;64628;50.104;14.614;2023-03-08T03:55:29;29;27;
75946;PMS5003;64628;50.104;14.614;2023-03-08T03:57:54;11;8;
75946;PMS5003;64628;50.104;14.614;2023-03-08T04:00:20;7;7;
75946;PMS5003;64628;50.104;14.614;2023-03-08T04:02:46;7;7;
75946;PMS5003;64628;50.104;14.614;2023-03-08T04:05:11;11;7;
75946;PMS5003;64628;50.104;14.614;2023-03-08T04:07:37;8;7;
75946;PMS5003;64628;50.104;14.614;2023-03-08T04:10:03;5;5;
75946;PMS5003;64628;50.104;14.614;2023-03-08T04:12:28;6;5;
75946;PMS5003;64628;50.104;14.614;2023-03-08T04:14:54;10;10;
75946;PMS5003;64628;50.104;14.614;2023-03-08T04:17:19;5;5;
75946;PMS5003;64628;50.104;14.614;2023-03-08T04:19:46;5;3;
75946;PMS5003;64628;50.104;14.614;2023-03-08T04:22:10;2;2;
75946;PMS5003;64628;50.104;14.614;2023-03-08T04:24:35;2;2;
75946;PMS5003;64628;50.104;14.614;2023-03-08T04:27:02;2;2;
75946;PMS5003;64628;50.104;14.614;2023-03-08T04:29:27;7;3;
75946;PMS5003;64628;50.104;14.614;2023-03-08T04:31:52;5;2;
75946;PMS5003;64628;50.104;14.614;2023-03-08T04:34:18;3;3;
75946;PMS5003;64628;50.104;14.614;2023-03-08T04:36:44;3;3;
75946;PMS5003;64628;50.104;14.614;2023-03-08T04:39:10;8;6;
75946;PMS5003;64628;50.104;14.614;2023-03-08T04:41:35;7;6;
75946;PMS5003;64628;50.104;14.614;2023-03-08T04:44:01;6;5;
75946;PMS5003;64628;50.104;14.614;2023-03-08T04:46:26;2;2;
75946;PMS5003;64628;50.104;14.614;2023-03-08T04:48:52;2;2;
75946;PMS5003;64628;50.104;14.614;2023-03-08T04:51:17;3;2;
75946;PMS5003;64628;50.104;14.614;2023-03-08T04:53:43;2;2;
75946;PMS5003;64628;50.104;14.614;2023-03-08T04:56:09;2;2;
75946;PMS5003;64628;50.104;14.614;2023-03-08T04:58:34;7;3;
75946;PMS5003;64628;50.104;14.614;2023-03-08T05:03:26;3;3;
75946;PMS5003;64628;50.104;14.614;2023-03-08T05:05:52;6;6;
75946;PMS5003;64628;50.104;14.614;2023-03-08T05:08:18;5;3;
75946;PMS5003;64628;50.104;14.614;2023-03-08T05:10:45;3;3;
75946;PMS5003;64628;50.104;14.614;2023-03-08T05:13:08;6;5;
75946;PMS5003;64628;50.104;14.614;2023-03-08T05:15:34;1;1;
75946;PMS5003;64628;50.104;14.614;2023-03-08T05:17:59;5;2;
75946;PMS5003;64628;50.104;14.614;2023-03-08T05:20:25;5;5;
75946;PMS5003;64628;50.104;14.614;2023-03-08T05:22:51;5;5;
75946;PMS5003;64628;50.104;14.614;2023-03-08T05:25:17;5;3;
75946;PMS5003;64628;50.104;14.614;2023-03-08T05:27:42;5;3;
75946;PMS5003;64628;50.104;14.614;2023-03-08T05:30:08;7;5;
75946;PMS5003;64628;50.104;14.614;2023-03-08T05:32:38;3;3;
75946;PMS5003;64628;50.104;14.614;2023-03-08T05:35:08;3;3;
75946;PMS5003;64628;50.104;14.614;2023-03-08T05:37:24;3;3;
75946;PMS5003;64628;50.104;14.614;2023-03-08T05:39:50;3;2;
75946;PMS5003;64628;50.104;14.614;2023-03-08T05:42:21;3;3;
75946;PMS5003;64628;50.104;14.614;2023-03-08T05:44:41;6;3;
75946;PMS5003;64628;50.104;14.614;2023-03-08T05:47:16;7;6;
75946;PMS5003;64628;50.104;14.614;2023-03-08T05:49:37;11;11;
75946;PMS5003;64628;50.104;14.614;2023-03-08T05:54:29;17;12;
75946;PMS5003;64628;50.104;14.614;2023-03-08T05:56:49;17;17;
75946;PMS5003;64628;50.104;14.614;2023-03-08T06:06:36;20;13;
75946;PMS5003;64628;50.104;14.614;2023-03-08T06:09:01;18;12;
75946;PMS5003;64628;50.104;14.614;2023-03-08T06:13:49;12;8;
75946;PMS5003;64628;50.104;14.614;2023-03-08T06:16:18;8;6;
75946;PMS5003;64628;50.104;14.614;2023-03-08T06:18:40;6;6;
75946;PMS5003;64628;50.104;14.614;2023-03-08T06:21:06;6;6;
75946;PMS5003;64628;50.104;14.614;2023-03-08T06:23:36;11;7;
75946;PMS5003;64628;50.104;14.614;2023-03-08T06:26:06;7;6;
75946;PMS5003;64628;50.104;14.614;2023-03-08T06:28:23;12;8;
75946;PMS5003;64628;50.104;14.614;2023-03-08T06:35:38;13;8;
75946;PMS5003;64628;50.104;14.614;2023-03-08T06:38:09;7;7;
75946;PMS5003;64628;50.104;14.614;2023-03-08T06:42:55;13;8;
75946;PMS5003;64628;50.104;14.614;2023-03-08T06:47:47;11;8;
75946;PMS5003;64628;50.104;14.614;2023-03-08T06:52:38;11;10;
75946;PMS5003;64628;50.104;14.614;2023-03-08T06:55:08;11;11;
75946;PMS5003;64628;50.104;14.614;2023-03-08T06:57:33;11;10;
75946;PMS5003;64628;50.104;14.614;2023-03-08T06:59:59;14;12;
75946;PMS5003;64628;50.104;14.614;2023-03-08T07:02:20;11;9;
75946;PMS5003;64628;50.104;14.614;2023-03-08T07:04:50;11;11;
75946;PMS5003;64628;50.104;14.614;2023-03-08T07:07:11;11;9;
75946;PMS5003;64628;50.104;14.614;2023-03-08T07:17:02;22;14;
75946;PMS5003;64628;50.104;14.614;2023-03-08T07:19:24;15;13;
75946;PMS5003;64628;50.104;14.614;2023-03-08T07:24:10;24;15;
75946;PMS5003;64628;50.104;14.614;2023-03-08T07:26:36;13;13;
75946;PMS5003;64628;50.104;14.614;2023-03-08T07:29:05;19;15;
75946;PMS5003;64628;50.104;14.614;2023-03-08T07:31:27;24;19;
75946;PMS5003;64628;50.104;14.614;2023-03-08T07:33:51;19;17;
75946;PMS5003;64628;50.104;14.614;2023-03-08T07:36:17;28;23;
75946;PMS5003;64628;50.104;14.614;2023-03-08T07:38:42;27;20;
75946;PMS5003;64628;50.104;14.614;2023-03-08T07:41:13;27;22;
75946;PMS5003;64628;50.104;14.614;2023-03-08T07:45:59;19;17;
75946;PMS5003;64628;50.104;14.614;2023-03-08T07:48:24;18;17;
75946;PMS5003;64628;50.104;14.614;2023-03-08T07:50:50;22;19;
75946;PMS5003;64628;50.104;14.614;2023-03-08T07:55:47;26;20;
75946;PMS5003;64628;50.104;14.614;2023-03-08T08:00:37;20;17;
75946;PMS5003;64628;50.104;14.614;2023-03-08T08:02:58;29;23;
75946;PMS5003;64628;50.104;14.614;2023-03-08T08:07:49;22;18;
75946;PMS5003;64628;50.104;14.614;2023-03-08T08:10:19;26;22;
75946;PMS5003;64628;50.104;14.614;2023-03-08T08:15:10;28;18;
75946;PMS5003;64628;50.104;14.614;2023-03-08T08:17:31;19;17;
75946;PMS5003;64628;50.104;14.614;2023-03-08T08:20:01;23;18;
75946;PMS5003;64628;50.104;14.614;2023-03-08T08:22:22;23;18;
75946;PMS5003;64628;50.104;14.614;2023-03-08T08:24:53;27;19;
75946;PMS5003;64628;50.104;14.614;2023-03-08T08:32:09;27;22;
75946;PMS5003;64628;50.104;14.614;2023-03-08T08:34:35;18;18;
75946;PMS5003;64628;50.104;14.614;2023-03-08T08:36:55;20;18;
75946;PMS5003;64628;50.104;14.614;2023-03-08T08:39:21;25;21;
75946;PMS5003;64628;50.104;14.614;2023-03-08T08:44:12;24;18;
75946;PMS5003;64628;50.104;14.614;2023-03-08T08:46:37;26;23;
75946;PMS5003;64628;50.104;14.614;2023-03-08T08:49:07;24;17;
75946;PMS5003;64628;50.104;14.614;2023-03-08T08:51:32;21;17;
75946;PMS5003;64628;50.104;14.614;2023-03-08T08:56:19;19;17;
75946;PMS5003;64628;50.104;14.614;2023-03-08T09:03:40;25;23;
75946;PMS5003;64628;50.104;14.614;2023-03-08T09:06:07;24;17;
75946;PMS5003;64628;50.104;14.614;2023-03-08T09:08:31;20;16;
75946;PMS5003;64628;50.104;14.614;2023-03-08T09:11:01;23;21;
75946;PMS5003;64628;50.104;14.614;2023-03-08T09:13:22;56;52;
75946;PMS5003;64628;50.104;14.614;2023-03-08T09:15:48;52;52;
75946;PMS5003;64628;50.104;14.614;2023-03-08T09:20:34;34;29;
75946;PMS5003;64628;50.104;14.614;2023-03-08T09:22:59;43;42;
75946;PMS5003;64628;50.104;14.614;2023-03-08T09:25:24;32;32;
75946;PMS5003;64628;50.104;14.614;2023-03-08T09:27:59;32;30;
75946;PMS5003;64628;50.104;14.614;2023-03-08T09:30:16;42;41;
75946;PMS5003;64628;50.104;14.614;2023-03-08T09:35:11;24;23;
75946;PMS5003;64628;50.104;14.614;2023-03-08T09:37:33;27;23;
75946;PMS5003;64628;50.104;14.614;2023-03-08T09:39:58;39;31;
75946;PMS5003;64628;50.104;14.614;2023-03-08T09:42:24;25;22;
75946;PMS5003;64628;50.104;14.614;2023-03-08T09:44:57;24;17;
75946;PMS5003;64628;50.104;14.614;2023-03-08T09:47:16;22;21;
75946;PMS5003;64628;50.104;14.614;2023-03-08T09:52:06;24;21;
75946;PMS5003;64628;50.104;14.614;2023-03-08T09:54:29;32;29;
75946;PMS5003;64628;50.104;14.614;2023-03-08T09:56:55;35;30;
75946;PMS5003;64628;50.104;14.614;2023-03-08T09:59:21;37;36;
75946;PMS5003;64628;50.104;14.614;2023-03-08T10:01:47;23;17;
75946;PMS5003;64628;50.104;14.614;2023-03-08T10:04:13;20;17;
75946;PMS5003;64628;50.104;14.614;2023-03-08T10:06:38;24;20;
75946;PMS5003;64628;50.104;14.614;2023-03-08T10:09:03;24;20;
75946;PMS5003;64628;50.104;14.614;2023-03-08T10:11:30;30;26;
75946;PMS5003;64628;50.104;14.614;2023-03-08T10:13:54;35;29;
75946;PMS5003;64628;50.104;14.614;2023-03-08T10:16:19;43;41;
75946;PMS5003;64628;50.104;14.614;2023-03-08T10:18:45;30;29;
75946;PMS5003;64628;50.104;14.614;2023-03-08T10:21:10;97;91;
75946;PMS5003;64628;50.104;14.614;2023-03-08T10:23:35;38;37;
75946;PMS5003;64628;50.104;14.614;2023-03-08T10:26:00;62;59;
75946;PMS5003;64628;50.104;14.614;2023-03-08T10:28:25;38;38;
75946;PMS5003;64628;50.104;14.614;2023-03-08T10:30:52;57;55;
75946;PMS5003;64628;50.104;14.614;2023-03-08T10:33:17;44;42;
75946;PMS5003;64628;50.104;14.614;2023-03-08T10:40:33;38;37;
75946;PMS5003;64628;50.104;14.614;2023-03-08T10:42:59;50;44;
75946;PMS5003;64628;50.104;14.614;2023-03-08T10:45:24;42;39;
75946;PMS5003;64628;50.104;14.614;2023-03-08T10:47:54;31;28;
75946;PMS5003;64628;50.104;14.614;2023-03-08T10:50:15;40;39;
75946;PMS5003;64628;50.104;14.614;2023-03-08T10:52:39;44;35;
75946;PMS5003;64628;50.104;14.614;2023-03-08T10:55:06;39;35;
75946;PMS5003;64628;50.104;14.614;2023-03-08T10:57:30;40;37;
75946;PMS5003;64628;50.104;14.614;2023-03-08T10:59:56;47;45;
75946;PMS5003;64628;50.104;14.614;2023-03-08T11:02:20;45;37;
75946;PMS5003;64628;50.104;14.614;2023-03-08T11:04:50;40;33;
75946;PMS5003;64628;50.104;14.614;2023-03-08T11:07:15;45;42;
75946;PMS5003;64628;50.104;14.614;2023-03-08T11:09:37;53;51;
75946;PMS5003;64628;50.104;14.614;2023-03-08T11:12:03;52;44;
75946;PMS5003;64628;50.104;14.614;2023-03-08T11:14:29;52;46;
75946;PMS5003;64628;50.104;14.614;2023-03-08T11:16:56;22;21;
75946;PMS5003;64628;50.104;14.614;2023-03-08T11:19:25;25;24;
75946;PMS5003;64628;50.104;14.614;2023-03-08T11:21:47;21;19;
75946;PMS5003;64628;50.104;14.614;2023-03-08T11:24:14;28;26;
75946;PMS5003;64628;50.104;14.614;2023-03-08T11:26:37;21;16;
75946;PMS5003;64628;50.104;14.614;2023-03-08T11:29:07;19;16;
75946;PMS5003;64628;50.104;14.614;2023-03-08T11:31:29;30;27;
75946;PMS5003;64628;50.104;14.614;2023-03-08T11:33:57;31;26;
75946;PMS5003;64628;50.104;14.614;2023-03-08T11:36:20;28;22;
75946;PMS5003;64628;50.104;14.614;2023-03-08T11:38:44;32;26;
75946;PMS5003;64628;50.104;14.614;2023-03-08T11:41:13;25;21;
75946;PMS5003;64628;50.104;14.614;2023-03-08T11:43:41;26;21;
75946;PMS5003;64628;50.104;14.614;2023-03-08T11:46:00;18;16;
75946;PMS5003;64628;50.104;14.614;2023-03-08T11:48:30;24;20;
75946;PMS5003;64628;50.104;14.614;2023-03-08T11:50:51;23;20;
75946;PMS5003;64628;50.104;14.614;2023-03-08T11:53:17;24;20;
75946;PMS5003;64628;50.104;14.614;2023-03-08T11:55:46;24;16;
75946;PMS5003;64628;50.104;14.614;2023-03-08T11:58:09;20;18;
75946;PMS5003;64628;50.104;14.614;2023-03-08T12:00:34;17;17;
75946;PMS5003;64628;50.104;14.614;2023-03-08T12:03:00;19;17;
75946;PMS5003;64628;50.104;14.614;2023-03-08T12:05:25;20;15;
75946;PMS5003;64628;50.104;14.614;2023-03-08T12:07:50;23;22;
75946;PMS5003;64628;50.104;14.614;2023-03-08T12:10:17;22;16;
75946;PMS5003;64628;50.104;14.614;2023-03-08T12:12:41;24;22;
75946;PMS5003;64628;50.104;14.614;2023-03-08T12:15:10;28;21;
75946;PMS5003;64628;50.104;14.614;2023-03-08T12:17:33;22;18;
75946;PMS5003;64628;50.104;14.614;2023-03-08T12:19:56;21;15;
75946;PMS5003;64628;50.104;14.614;2023-03-08T12:22:25;27;22;
75946;PMS5003;64628;50.104;14.614;2023-03-08T12:24:48;24;20;
75946;PMS5003;64628;50.104;14.614;2023-03-08T12:27:15;26;21;
75946;PMS5003;64628;50.104;14.614;2023-03-08T12:29:39;26;19;
75946;PMS5003;64628;50.104;14.614;2023-03-08T12:32:03;24;20;
75946;PMS5003;64628;50.104;14.614;2023-03-08T12:36:55;21;20;
75946;PMS5003;64628;50.104;14.614;2023-03-08T12:39:25;27;23;
75946;PMS5003;64628;50.104;14.614;2023-03-08T12:46:44;23;20;
75946;PMS5003;64628;50.104;14.614;2023-03-08T12:49:03;21;20;
75946;PMS5003;64628;50.104;14.614;2023-03-08T12:51:29;30;25;
75946;PMS5003;64628;50.104;14.614;2023-03-08T12:53:55;27;24;
75946;PMS5003;64628;50.104;14.614;2023-03-08T12:56:21;24;22;
75946;PMS5003;64628;50.104;14.614;2023-03-08T12:58:48;26;19;
75946;PMS5003;64628;50.104;14.614;2023-03-08T13:03:36;31;27;
75946;PMS5003;64628;50.104;14.614;2023-03-08T13:06:00;23;23;
75946;PMS5003;64628;50.104;14.614;2023-03-08T13:08:29;28;19;
75946;PMS5003;64628;50.104;14.614;2023-03-08T13:10:54;20;19;
75946;PMS5003;64628;50.104;14.614;2023-03-08T13:13:20;25;22;
75946;PMS5003;64628;50.104;14.614;2023-03-08T13:15:42;25;24;
75946;PMS5003;64628;50.104;14.614;2023-03-08T13:18:11;31;24;
75946;PMS5003;64628;50.104;14.614;2023-03-08T13:23:01;33;26;
75946;PMS5003;64628;50.104;14.614;2023-03-08T13:25:29;36;32;
75946;PMS5003;64628;50.104;14.614;2023-03-08T13:27:51;26;23;
75946;PMS5003;64628;50.104;14.614;2023-03-08T13:30:17;32;22;
75946;PMS5003;64628;50.104;14.614;2023-03-08T13:32:41;32;26;
75946;PMS5003;64628;50.104;14.614;2023-03-08T13:35:10;32;25;
75946;PMS5003;64628;50.104;14.614;2023-03-08T13:37:31;30;25;
75946;PMS5003;64628;50.104;14.614;2023-03-08T13:39:58;22;21;
75946;PMS5003;64628;50.104;14.614;2023-03-08T13:42:23;32;28;
75946;PMS5003;64628;50.104;14.614;2023-03-08T13:44:48;32;27;
75946;PMS5003;64628;50.104;14.614;2023-03-08T13:47:16;28;22;
75946;PMS5003;64628;50.104;14.614;2023-03-08T13:49:40;31;25;
75946;PMS5003;64628;50.104;14.614;2023-03-08T13:52:17;31;26;
75946;PMS5003;64628;50.104;14.614;2023-03-08T13:54:30;30;27;
75946;PMS5003;64628;50.104;14.614;2023-03-08T13:56:55;36;28;
75946;PMS5003;64628;50.104;14.614;2023-03-08T13:59:20;31;23;
75946;PMS5003;64628;50.104;14.614;2023-03-08T14:01:46;37;27;
75946;PMS5003;64628;50.104;14.614;2023-03-08T14:04:15;34;24;
75946;PMS5003;64628;50.104;14.614;2023-03-08T14:06:36;33;32;
75946;PMS5003;64628;50.104;14.614;2023-03-08T14:09:02;41;31;
75946;PMS5003;64628;50.104;14.614;2023-03-08T14:11:28;32;28;
75946;PMS5003;64628;50.104;14.614;2023-03-08T14:13:53;34;23;
75946;PMS5003;64628;50.104;14.614;2023-03-08T14:16:23;28;23;
75946;PMS5003;64628;50.104;14.614;2023-03-08T14:18:44;37;33;
75946;PMS5003;64628;50.104;14.614;2023-03-08T14:21:12;31;28;
75946;PMS5003;64628;50.104;14.614;2023-03-08T14:23:37;33;27;
75946;PMS5003;64628;50.104;14.614;2023-03-08T14:26:01;29;26;
75946;PMS5003;64628;50.104;14.614;2023-03-08T14:28:33;29;24;
75946;PMS5003;64628;50.104;14.614;2023-03-08T14:30:52;36;31;
75946;PMS5003;64628;50.104;14.614;2023-03-08T14:33:18;32;28;
75946;PMS5003;64628;50.104;14.614;2023-03-08T14:35:44;33;30;
75946;PMS5003;64628;50.104;14.614;2023-03-08T14:38:12;33;28;
75946;PMS5003;64628;50.104;14.614;2023-03-08T14:40:35;38;34;
75946;PMS5003;64628;50.104;14.614;2023-03-08T14:43:00;39;28;
75946;PMS5003;64628;50.104;14.614;2023-03-08T14:45:27;44;33;
75946;PMS5003;64628;50.104;14.614;2023-03-08T14:47:50;36;25;
75946;PMS5003;64628;50.104;14.614;2023-03-08T14:50:18;40;31;
75946;PMS5003;64628;50.104;14.614;2023-03-08T14:52:43;29;28;
75946;PMS5003;64628;50.104;14.614;2023-03-08T14:57:32;37;34;
75946;PMS5003;64628;50.104;14.614;2023-03-08T15:00:01;33;28;
75946;PMS5003;64628;50.104;14.614;2023-03-08T15:02:23;35;25;
75946;PMS5003;64628;50.104;14.614;2023-03-08T15:04:49;30;24;
75946;PMS5003;64628;50.104;14.614;2023-03-08T15:07:15;27;22;
75946;PMS5003;64628;50.104;14.614;2023-03-08T15:09:40;35;28;
75946;PMS5003;64628;50.104;14.614;2023-03-08T15:12:07;29;24;
75946;PMS5003;64628;50.104;14.614;2023-03-08T15:14:31;34;30;
75946;PMS5003;64628;50.104;14.614;2023-03-08T15:16:57;32;31;
75946;PMS5003;64628;50.104;14.614;2023-03-08T15:19:22;35;33;
75946;PMS5003;64628;50.104;14.614;2023-03-08T15:21:48;35;35;
75946;PMS5003;64628;50.104;14.614;2023-03-08T15:24:14;34;29;
75946;PMS5003;64628;50.104;14.614;2023-03-08T15:26:39;37;33;
75946;PMS5003;64628;50.104;14.614;2023-03-08T15:29:05;35;32;
75946;PMS5003;64628;50.104;14.614;2023-03-08T15:31:30;35;31;
75946;PMS5003;64628;50.104;14.614;2023-03-08T15:33:55;36;30;
75946;PMS5003;64628;50.104;14.614;2023-03-08T15:36:21;32;30;
75946;PMS5003;64628;50.104;14.614;2023-03-08T15:38:46;39;36;
75946;PMS5003;64628;50.104;14.614;2023-03-08T15:41:11;31;28;
75946;PMS5003;64628;50.104;14.614;2023-03-08T15:43:36;36;31;
75946;PMS5003;64628;50.104;14.614;2023-03-08T15:46:02;39;31;
75946;PMS5003;64628;50.104;14.614;2023-03-08T15:48:27;32;28;
75946;PMS5003;64628;50.104;14.614;2023-03-08T15:50:54;39;33;
75946;PMS5003;64628;50.104;14.614;2023-03-08T15:53:18;42;35;
75946;PMS5003;64628;50.104;14.614;2023-03-08T15:55:43;40;34;
75946;PMS5003;64628;50.104;14.614;2023-03-08T15:58:10;38;32;
75946;PMS5003;64628;50.104;14.614;2023-03-08T16:00:35;38;36;
75946;PMS5003;64628;50.104;14.614;2023-03-08T16:03:00;44;38;
75946;PMS5003;64628;50.104;14.614;2023-03-08T16:05:26;49;40;
75946;PMS5003;64628;50.104;14.614;2023-03-08T16:07:52;45;35;
75946;PMS5003;64628;50.104;14.614;2023-03-08T16:10:18;42;37;
75946;PMS5003;64628;50.104;14.614;2023-03-08T16:12:43;54;43;
75946;PMS5003;64628;50.104;14.614;2023-03-08T16:15:08;38;34;
75946;PMS5003;64628;50.104;14.614;2023-03-08T16:17:34;44;41;
75946;PMS5003;64628;50.104;14.614;2023-03-08T16:19:59;52;43;
75946;PMS5003;64628;50.104;14.614;2023-03-08T16:22:24;51;42;
75946;PMS5003;64628;50.104;14.614;2023-03-08T16:24:50;45;41;
75946;PMS5003;64628;50.104;14.614;2023-03-08T16:27:15;46;34;
75946;PMS5003;64628;50.104;14.614;2023-03-08T16:29:41;43;37;
75946;PMS5003;64628;50.104;14.614;2023-03-08T16:32:08;44;37;
75946;PMS5003;64628;50.104;14.614;2023-03-08T16:34:32;40;32;
75946;PMS5003;64628;50.104;14.614;2023-03-08T16:36:57;49;41;
75946;PMS5003;64628;50.104;14.614;2023-03-08T16:39:23;49;40;
75946;PMS5003;64628;50.104;14.614;2023-03-08T16:41:48;46;36;
75946;PMS5003;64628;50.104;14.614;2023-03-08T16:44:18;40;40;
75946;PMS5003;64628;50.104;14.614;2023-03-08T16:46:49;38;37;
75946;PMS5003;64628;50.104;14.614;2023-03-08T16:49:05;47;36;
75946;PMS5003;64628;50.104;14.614;2023-03-08T16:51:30;46;34;
75946;PMS5003;64628;50.104;14.614;2023-03-08T16:53:56;36;35;
75946;PMS5003;64628;50.104;14.614;2023-03-08T16:56:22;53;40;
75946;PMS5003;64628;50.104;14.614;2023-03-08T16:58:47;64;48;
75946;PMS5003;64628;50.104;14.614;2023-03-08T17:01:13;40;37;
75946;PMS5003;64628;50.104;14.614;2023-03-08T17:03:37;36;30;
75946;PMS5003;64628;50.104;14.614;2023-03-08T17:06:05;51;45;
75946;PMS5003;64628;50.104;14.614;2023-03-08T17:08:28;39;32;
75946;PMS5003;64628;50.104;14.614;2023-03-08T17:10:53;51;44;
75946;PMS5003;64628;50.104;14.614;2023-03-08T17:13:19;51;42;
75946;PMS5003;64628;50.104;14.614;2023-03-08T17:15:45;46;41;
75946;PMS5003;64628;50.104;14.614;2023-03-08T17:18:11;36;29;
75946;PMS5003;64628;50.104;14.614;2023-03-08T17:20:37;45;39;
75946;PMS5003;64628;50.104;14.614;2023-03-08T17:23:02;48;44;
75946;PMS5003;64628;50.104;14.614;2023-03-08T17:25:27;49;42;
75946;PMS5003;64628;50.104;14.614;2023-03-08T17:27:52;50;39;